Time;durP1;ratioP1;P1;durP2;ratioP2;P2;SDS_P1;SDS_P2;PMS_P1;PMS_P2;Temp;Humidity;BMP_temperature;BMP_pressure;BME280_temperature;BME280_humidity;BME280_pressure;Samples;Min_cycle;Max_cycle;Signal;HPM_P1;HPM_P2
2022/12/02 00:00:48;;;;;;;;;;;3.60;99.90;;;;;;5102117;27;19924;-72
2022/12/02 00:03:16;;;;;;;;;;;3.60;99.90;;;;;;5094345;28;20361;-71
2022/12/02 00:05:42;;;;;;;;;;;3.60;99.90;;;;;;5095517;28;19970;-73
2022/12/02 00:08:19;;;;;;;;;;;3.60;99.90;;;;;;5101421;27;19982;-73
2022/12/02 00:10:44;;;;;;;;;;;3.50;99.90;;;;;;5076350;28;20050;-72
2022/12/02 00:13:19;;;;;;;;;;;3.50;99.90;;;;;;5086136;28;20014;-71
2022/12/02 00:15:45;;;;;;;;;;;3.50;99.90;;;;;;5088431;27;19920;-73
2022/12/02 00:18:13;;;;;;;;;;;3.50;99.90;;;;;;5084397;28;20346;-71
2022/12/02 00:20:38;;;;;;;;;;;3.50;99.90;;;;;;5068877;28;19967;-72
2022/12/02 00:23:04;;;;;;;;;;;3.50;99.90;;;;;;5079281;27;19966;-72
2022/12/02 00:25:30;;;;;;;;;;;3.40;99.90;;;;;;5083581;28;20453;-71
2022/12/02 00:27:55;;;;;;;;;;;3.50;99.90;;;;;;5080961;28;19946;-72
2022/12/02 00:30:21;;;;;;;;;;;3.50;99.90;;;;;;5065458;27;20023;-72
2022/12/02 00:32:46;;;;;;;;;;;3.40;99.90;;;;;;5077262;28;20398;-71
2022/12/02 00:35:12;;;;;;;;;;;3.40;99.90;;;;;;5080294;28;19977;-72
2022/12/02 00:37:38;;;;;;;;;;;3.40;99.90;;;;;;5078168;28;19970;-71
2022/12/02 00:40:03;;;;;;;;;;;3.40;99.90;;;;;;5082910;28;20160;-72
2022/12/02 00:42:29;;;;;;;;;;;3.50;99.90;;;;;;5077842;28;20408;-72
2022/12/02 00:47:43;;;;;;;;;;;3.40;99.90;;;;;;5043041;27;20374;-72
2022/12/02 00:50:09;;;;;;;;;;;3.40;99.90;;;;;;5086265;28;19931;-72
2022/12/02 00:52:35;;;;;;;;;;;3.40;99.90;;;;;;5107829;27;19920;-72
2022/12/02 00:55:00;;;;;;;;;;;3.30;99.90;;;;;;5107424;27;20011;-73
2022/12/02 00:57:26;;;;;;;;;;;3.30;99.90;;;;;;5114792;27;20286;-72
2022/12/02 00:59:51;;;;;;;;;;;3.40;99.90;;;;;;5112735;27;19942;-72
2022/12/02 01:02:17;;;;;;;;;;;3.40;99.90;;;;;;5074084;27;19924;-72
2022/12/02 01:04:43;;;;;;;;;;;3.40;99.90;;;;;;5083840;28;20443;-72
2022/12/02 01:07:09;;;;;;;;;;;3.30;99.90;;;;;;5116256;27;19934;-72
2022/12/02 01:09:35;;;;;;;;;;;3.40;99.90;;;;;;5126085;27;19936;-72
2022/12/02 01:12:00;;;;;;;;;;;3.30;99.90;;;;;;5097609;27;19919;-72
2022/12/02 01:14:26;;;;;;;;;;;3.40;99.90;;;;;;5101495;27;19927;-71
2022/12/02 01:16:51;;;;;;;;;;;3.30;99.90;;;;;;5096668;27;20431;-70
2022/12/02 01:19:17;;;;;;;;;;;3.30;99.90;;;;;;5098904;28;19971;-72
2022/12/02 01:21:42;;;;;;;;;;;3.40;99.90;;;;;;5096194;27;19969;-72
2022/12/02 01:24:08;;;;;;;;;;;3.40;99.90;;;;;;5115263;27;19928;-72
2022/12/02 01:26:34;;;;;;;;;;;3.30;99.90;;;;;;5094874;27;19920;-72
2022/12/02 01:28:59;;;;;;;;;;;3.30;99.90;;;;;;5097761;27;20655;-72
2022/12/02 01:31:25;;;;;;;;;;;3.30;99.90;;;;;;5127287;27;19924;-70
2022/12/02 01:33:50;;;;;;;;;;;3.30;99.90;;;;;;5098059;27;19920;-72
2022/12/02 01:36:16;;;;;;;;;;;3.30;99.90;;;;;;5102058;27;20456;-71
2022/12/02 01:38:41;;;;;;;;;;;3.30;99.90;;;;;;5101728;28;19945;-72
2022/12/02 01:41:07;;;;;;;;;;;3.20;99.90;;;;;;5130791;27;20314;-71
2022/12/02 01:43:32;;;;;;;;;;;3.30;99.90;;;;;;5098104;27;19985;-71
2022/12/02 01:45:58;;;;;;;;;;;3.30;99.90;;;;;;5103075;27;19924;-70
2022/12/02 01:48:24;;;;;;;;;;;3.30;99.90;;;;;;5098932;27;19965;-72
2022/12/02 01:50:49;;;;;;;;;;;3.30;99.90;;;;;;5100319;27;20359;-71
2022/12/02 01:53:15;;;;;;;;;;;3.20;99.90;;;;;;5098140;27;19927;-72
2022/12/02 01:55:40;;;;;;;;;;;3.20;99.90;;;;;;5134012;27;19920;-72
2022/12/02 01:58:08;;;;;;;;;;;3.30;99.90;;;;;;5103978;27;20335;-71
2022/12/02 02:00:33;;;;;;;;;;;3.20;99.90;;;;;;5105015;28;20275;-72
2022/12/02 02:02:59;;;;;;;;;;;3.20;99.90;;;;;;5128405;27;19927;-71
2022/12/02 02:05:29;;;;;;;;;;;3.20;99.90;;;;;;5102921;28;19951;-72
2022/12/02 02:07:56;;;;;;;;;;;3.20;99.90;;;;;;5104960;28;19928;-72
2022/12/02 02:10:23;;;;;;;;;;;3.20;99.90;;;;;;5086640;28;20366;-71
2022/12/02 02:12:50;;;;;;;;;;;3.20;99.90;;;;;;5081171;28;19924;-73
2022/12/02 02:15:16;;;;;;;;;;;3.20;99.90;;;;;;5117671;27;19971;-71
2022/12/02 02:17:42;;;;;;;;;;;3.20;99.90;;;;;;5089086;28;19942;-72
2022/12/02 02:20:09;;;;;;;;;;;3.20;99.90;;;;;;5082610;28;20484;-72
2022/12/02 02:22:51;;;;;;;;;;;3.20;99.90;;;;;;5112639;27;19920;-71
2022/12/02 02:25:16;;;;;;;;;;;3.10;99.90;;;;;;5082304;28;20412;-71
2022/12/02 02:27:44;;;;;;;;;;;3.20;99.90;;;;;;5081738;28;19920;-72
2022/12/02 02:30:13;;;;;;;;;;;3.20;99.90;;;;;;5085578;28;19931;-72
2022/12/02 02:32:39;;;;;;;;;;;3.20;99.90;;;;;;5118533;27;20104;-71
2022/12/02 02:35:04;;;;;;;;;;;3.10;99.90;;;;;;5079342;27;19920;-73
2022/12/02 02:37:30;;;;;;;;;;;3.10;99.90;;;;;;5081249;28;20275;-71
2022/12/02 02:39:56;;;;;;;;;;;3.10;99.90;;;;;;5114928;27;19971;-73
2022/12/02 02:42:21;;;;;;;;;;;3.10;99.90;;;;;;5111451;27;19937;-71
2022/12/02 02:44:47;;;;;;;;;;;3.10;99.90;;;;;;5079652;28;19977;-71
2022/12/02 02:47:13;;;;;;;;;;;3.10;99.90;;;;;;5081319;28;19967;-72
2022/12/02 02:49:38;;;;;;;;;;;3.00;99.90;;;;;;5065520;27;20002;-72
2022/12/02 02:52:04;;;;;;;;;;;3.00;99.90;;;;;;5077782;28;19969;-73
2022/12/02 02:54:29;;;;;;;;;;;3.00;99.90;;;;;;5098504;28;19924;-72
2022/12/02 02:56:55;;;;;;;;;;;3.00;99.90;;;;;;5057199;28;19928;-73
2022/12/02 02:59:20;;;;;;;;;;;3.00;99.90;;;;;;5086251;28;19930;-73
2022/12/02 03:01:46;;;;;;;;;;;3.10;99.90;;;;;;5082531;28;19934;-72
2022/12/02 03:04:14;;;;;;;;;;;3.00;99.90;;;;;;5115189;27;19919;-73
2022/12/02 03:06:41;;;;;;;;;;;3.00;99.90;;;;;;5078667;27;19962;-73
2022/12/02 03:09:09;;;;;;;;;;;3.10;99.90;;;;;;5106891;27;19927;-71
2022/12/02 03:11:35;;;;;;;;;;;3.00;99.90;;;;;;5097788;28;20072;-72
2022/12/02 03:14:02;;;;;;;;;;;3.00;99.90;;;;;;5096360;28;20286;-71
2022/12/02 03:16:27;;;;;;;;;;;3.00;99.90;;;;;;5098306;27;19919;-70
2022/12/02 03:18:53;;;;;;;;;;;3.00;99.90;;;;;;5132576;27;19930;-72
2022/12/02 03:21:19;;;;;;;;;;;3.00;99.90;;;;;;5087566;28;19947;-71
2022/12/02 03:23:46;;;;;;;;;;;3.00;99.90;;;;;;5102986;28;21462;-70
2022/12/02 03:26:12;;;;;;;;;;;2.90;99.90;;;;;;5101219;28;19919;-69
2022/12/02 03:28:37;;;;;;;;;;;2.90;99.90;;;;;;5100336;28;19927;-71
2022/12/02 03:31:03;;;;;;;;;;;2.90;99.90;;;;;;5098993;28;20366;-71
2022/12/02 03:33:28;;;;;;;;;;;2.80;99.90;;;;;;5095620;28;19927;-71
2022/12/02 03:35:54;;;;;;;;;;;2.80;99.90;;;;;;5100359;27;19926;-71
2022/12/02 03:38:20;;;;;;;;;;;2.90;99.90;;;;;;5098963;27;20348;-71
2022/12/02 03:40:45;;;;;;;;;;;2.80;99.90;;;;;;5097702;27;19953;-71
2022/12/02 03:43:11;;;;;;;;;;;2.80;99.90;;;;;;5102717;27;19945;-71
2022/12/02 03:45:36;;;;;;;;;;;2.80;99.90;;;;;;5108080;28;19927;-72
2022/12/02 03:48:03;;;;;;;;;;;2.80;99.90;;;;;;5099764;28;19927;-70
2022/12/02 03:50:28;;;;;;;;;;;2.70;99.90;;;;;;5098866;28;20681;-70
2022/12/02 03:52:54;;;;;;;;;;;2.80;99.90;;;;;;5096716;28;19923;-69
2022/12/02 03:55:20;;;;;;;;;;;2.80;99.90;;;;;;5099861;28;19959;-71
2022/12/02 03:57:45;;;;;;;;;;;2.80;99.90;;;;;;5095861;28;20048;-71
2022/12/02 04:00:11;;;;;;;;;;;2.80;99.90;;;;;;5092718;28;20331;-70
2022/12/02 04:02:37;;;;;;;;;;;2.70;99.90;;;;;;5095517;28;19939;-69
2022/12/02 04:05:02;;;;;;;;;;;2.70;99.90;;;;;;5105108;28;19924;-70
2022/12/02 04:07:28;;;;;;;;;;;2.70;99.90;;;;;;5101625;28;19924;-71
2022/12/02 04:09:53;;;;;;;;;;;2.70;99.90;;;;;;5100472;28;19920;-70
2022/12/02 04:12:19;;;;;;;;;;;2.70;99.90;;;;;;5096135;28;19928;-72
2022/12/02 04:14:44;;;;;;;;;;;2.70;99.90;;;;;;5099760;28;19977;-71
2022/12/02 04:17:10;;;;;;;;;;;2.60;99.90;;;;;;5093157;28;19931;-71
2022/12/02 04:19:35;;;;;;;;;;;2.60;99.90;;;;;;5097306;28;19920;-71
2022/12/02 04:22:01;;;;;;;;;;;2.60;99.90;;;;;;5080990;28;19924;-72
2022/12/02 04:24:27;;;;;;;;;;;2.60;99.90;;;;;;5097203;28;19924;-71
2022/12/02 04:26:53;;;;;;;;;;;2.60;99.90;;;;;;5095578;28;19962;-71
2022/12/02 04:29:18;;;;;;;;;;;2.50;99.90;;;;;;5093190;28;19923;-70
2022/12/02 04:31:44;;;;;;;;;;;2.50;99.90;;;;;;5097057;28;20059;-71
2022/12/02 04:34:09;;;;;;;;;;;2.50;99.90;;;;;;5093110;28;19920;-72
2022/12/02 04:36:35;;;;;;;;;;;2.50;99.90;;;;;;5096817;28;19970;-71
2022/12/02 04:39:00;;;;;;;;;;;2.50;99.90;;;;;;5094947;28;20027;-72
2022/12/02 04:41:28;;;;;;;;;;;2.50;99.90;;;;;;5092782;28;20306;-71
2022/12/02 04:43:53;;;;;;;;;;;2.50;99.90;;;;;;5095334;28;19934;-70
2022/12/02 04:46:19;;;;;;;;;;;2.50;99.90;;;;;;5089270;28;19920;-70
2022/12/02 04:48:44;;;;;;;;;;;2.40;99.90;;;;;;5095810;28;19934;-71
2022/12/02 04:51:10;;;;;;;;;;;2.40;99.90;;;;;;5093858;28;20014;-72
2022/12/02 04:53:35;;;;;;;;;;;2.40;99.90;;;;;;5094823;28;19924;-71
2022/12/02 04:56:01;;;;;;;;;;;2.40;99.90;;;;;;5095372;28;19920;-70
2022/12/02 04:58:26;;;;;;;;;;;2.40;99.90;;;;;;5100149;28;20021;-72
2022/12/02 05:00:52;;;;;;;;;;;2.40;99.90;;;;;;5098055;28;19920;-70
2022/12/02 05:03:17;;;;;;;;;;;2.30;99.90;;;;;;5130142;27;19942;-71
2022/12/02 05:05:43;;;;;;;;;;;2.40;99.90;;;;;;5101311;28;19919;-72
2022/12/02 05:08:08;;;;;;;;;;;2.30;99.90;;;;;;5093757;27;19931;-71
2022/12/02 05:10:34;;;;;;;;;;;2.30;99.90;;;;;;5085685;28;20271;-72
2022/12/02 05:12:59;;;;;;;;;;;2.40;99.90;;;;;;5081049;28;20059;-71
2022/12/02 05:15:25;;;;;;;;;;;2.30;99.90;;;;;;5081766;28;19920;-71
2022/12/02 05:17:50;;;;;;;;;;;2.30;99.90;;;;;;5085224;28;19967;-71
2022/12/02 05:20:15;;;;;;;;;;;2.30;99.90;;;;;;5084667;28;19924;-72
2022/12/02 05:22:41;;;;;;;;;;;2.30;99.90;;;;;;5082287;28;19920;-73
2022/12/02 05:25:07;;;;;;;;;;;2.30;99.90;;;;;;5074334;28;19927;-72
2022/12/02 05:27:32;;;;;;;;;;;2.30;99.90;;;;;;5066245;27;20019;-72
2022/12/02 05:29:58;;;;;;;;;;;2.20;99.90;;;;;;5082368;27;19955;-71
2022/12/02 05:32:23;;;;;;;;;;;2.30;99.90;;;;;;5080010;28;19927;-71
2022/12/02 05:34:49;;;;;;;;;;;2.20;99.90;;;;;;5080718;28;19923;-73
2022/12/02 05:37:14;;;;;;;;;;;2.20;99.90;;;;;;5084995;28;19920;-72
2022/12/02 05:39:39;;;;;;;;;;;2.20;99.90;;;;;;5080289;28;19932;-73
2022/12/02 05:42:06;;;;;;;;;;;2.20;99.90;;;;;;5116277;27;19937;-71
2022/12/02 05:44:32;;;;;;;;;;;2.20;99.90;;;;;;5096261;28;19942;-73
2022/12/02 05:47:00;;;;;;;;;;;2.30;99.90;;;;;;5083610;28;20018;-72
2022/12/02 05:49:25;;;;;;;;;;;2.20;99.90;;;;;;5107472;27;19920;-73
2022/12/02 05:51:58;;;;;;;;;;;2.20;99.90;;;;;;5079630;28;19932;-72
2022/12/02 05:54:24;;;;;;;;;;;2.20;99.90;;;;;;5109753;27;20336;-73
2022/12/02 05:56:49;;;;;;;;;;;2.20;99.90;;;;;;5082227;28;19986;-73
2022/12/02 05:59:16;;;;;;;;;;;2.20;99.90;;;;;;5084557;28;20382;-73
2022/12/02 06:01:42;;;;;;;;;;;2.20;99.90;;;;;;5114078;27;20282;-71
2022/12/02 06:04:12;;;;;;;;;;;2.20;99.90;;;;;;5078837;27;19977;-73
2022/12/02 06:06:38;;;;;;;;;;;2.20;99.90;;;;;;5083282;28;19930;-73
2022/12/02 06:09:10;;;;;;;;;;;2.20;99.90;;;;;;5089484;28;19920;-73
2022/12/02 06:11:37;;;;;;;;;;;2.20;99.90;;;;;;5099673;27;19924;-72
2022/12/02 06:14:12;;;;;;;;;;;2.20;99.90;;;;;;5095774;28;19920;-73
2022/12/02 06:16:39;;;;;;;;;;;2.10;99.90;;;;;;5099879;27;19926;-72
2022/12/02 06:19:10;;;;;;;;;;;2.10;99.90;;;;;;5099249;27;19977;-72
2022/12/02 06:21:36;;;;;;;;;;;2.20;99.90;;;;;;5095037;28;19943;-72
2022/12/02 06:24:01;;;;;;;;;;;2.10;99.90;;;;;;5096354;27;20374;-71
2022/12/02 06:26:27;;;;;;;;;;;2.10;99.90;;;;;;5100347;28;19919;-71
2022/12/02 06:28:58;;;;;;;;;;;2.10;99.90;;;;;;5101309;27;20351;-73
2022/12/02 06:31:32;;;;;;;;;;;2.10;99.90;;;;;;5099417;27;20339;-73
2022/12/02 06:33:59;;;;;;;;;;;2.10;99.90;;;;;;5101531;28;19930;-73
2022/12/02 06:36:26;;;;;;;;;;;2.10;99.90;;;;;;5112029;27;20006;-71
2022/12/02 06:39:15;;;;;;;;;;;2.10;99.90;;;;;;5136319;27;19927;-72
2022/12/02 06:41:40;;;;;;;;;;;2.00;99.90;;;;;;5079464;27;19923;-72
2022/12/02 06:46:57;;;;;;;;;;;2.00;99.90;;;;;;5099145;27;19931;-73
2022/12/02 06:49:24;;;;;;;;;;;2.10;99.90;;;;;;5100328;28;20306;-72
2022/12/02 06:51:57;;;;;;;;;;;2.00;99.90;;;;;;5133522;27;20434;-72
2022/12/02 06:54:25;;;;;;;;;;;2.00;99.90;;;;;;5106636;28;19919;-72
2022/12/02 06:56:51;;;;;;;;;;;2.00;99.90;;;;;;5107165;28;19920;-71
2022/12/02 06:59:19;;;;;;;;;;;2.00;99.90;;;;;;5106032;28;19926;-71
2022/12/02 07:01:45;;;;;;;;;;;2.00;99.90;;;;;;5118355;27;19935;-72
2022/12/02 07:04:28;;;;;;;;;;;2.00;99.90;;;;;;5100335;28;20043;-72
2022/12/02 07:06:56;;;;;;;;;;;2.00;99.90;;;;;;5087823;28;19931;-72
2022/12/02 07:09:34;;;;;;;;;;;1.90;99.90;;;;;;5099572;28;19926;-72
2022/12/02 07:11:59;;;;;;;;;;;2.00;99.90;;;;;;5106120;27;20002;-71
2022/12/02 07:14:34;;;;;;;;;;;1.90;99.90;;;;;;5110107;28;20413;-71
2022/12/02 07:17:02;;;;;;;;;;;1.90;99.90;;;;;;5105180;27;20350;-71
2022/12/02 07:19:36;;;;;;;;;;;2.00;99.90;;;;;;5104344;28;19919;-72
2022/12/02 07:22:03;;;;;;;;;;;1.90;99.90;;;;;;5108592;28;19926;-71
2022/12/02 07:24:28;;;;;;;;;;;1.90;99.90;;;;;;5107662;28;19924;-72
2022/12/02 07:26:54;;;;;;;;;;;2.00;99.90;;;;;;5102089;28;20429;-70
2022/12/02 07:29:24;;;;;;;;;;;2.00;99.90;;;;;;5103722;28;20397;-70
2022/12/02 07:31:50;;;;;;;;;;;2.00;99.90;;;;;;5133600;27;19924;-71
2022/12/02 07:34:15;;;;;;;;;;;2.00;99.90;;;;;;5103010;28;19942;-72
2022/12/02 07:36:41;;;;;;;;;;;2.00;99.90;;;;;;5110407;28;19965;-72
2022/12/02 07:39:06;;;;;;;;;;;2.00;99.90;;;;;;5118622;27;20378;-72
2022/12/02 07:41:33;;;;;;;;;;;2.10;99.90;;;;;;5107692;28;20260;-72
2022/12/02 07:43:58;;;;;;;;;;;2.10;99.90;;;;;;5110303;28;19963;-72
2022/12/02 07:46:24;;;;;;;;;;;2.10;99.90;;;;;;5097417;28;19963;-71
2022/12/02 07:48:49;;;;;;;;;;;2.10;99.90;;;;;;5126105;27;19929;-69
2022/12/02 07:51:14;;;;;;;;;;;2.10;99.90;;;;;;5084679;28;20278;-69
2022/12/02 07:53:40;;;;;;;;;;;2.20;99.90;;;;;;5101591;28;19920;-70
2022/12/02 07:56:06;;;;;;;;;;;2.10;99.90;;;;;;5109770;28;19943;-70
2022/12/02 07:58:31;;;;;;;;;;;2.20;99.90;;;;;;5105264;28;20398;-71
2022/12/02 08:00:57;;;;;;;;;;;2.20;99.90;;;;;;5108066;28;19930;-71
2022/12/02 08:03:22;;;;;;;;;;;2.30;99.90;;;;;;5106231;28;20006;-70
2022/12/02 08:05:48;;;;;;;;;;;2.30;99.90;;;;;;5094378;28;19923;-70
2022/12/02 08:08:13;;;;;;;;;;;2.30;99.90;;;;;;5109891;28;19923;-68
2022/12/02 08:10:39;;;;;;;;;;;2.40;99.90;;;;;;5111634;28;19924;-70
2022/12/02 08:13:04;;;;;;;;;;;2.30;99.90;;;;;;5102862;28;20424;-67
2022/12/02 08:15:30;;;;;;;;;;;2.30;99.90;;;;;;5102676;28;20018;-68
2022/12/02 08:17:55;;;;;;;;;;;2.30;99.90;;;;;;5107944;28;19919;-67
2022/12/02 08:20:21;;;;;;;;;;;2.30;99.90;;;;;;5110998;28;19920;-68
2022/12/02 08:22:51;;;;;;;;;;;2.40;99.90;;;;;;5140870;27;19995;-68
2022/12/02 08:25:17;;;;;;;;;;;2.40;99.90;;;;;;5144175;27;19920;-68
2022/12/02 08:27:42;;;;;;;;;;;2.40;99.90;;;;;;5106647;28;20412;-67
2022/12/02 08:30:08;;;;;;;;;;;2.40;99.90;;;;;;5095512;28;19924;-67
2022/12/02 08:32:34;;;;;;;;;;;2.40;99.90;;;;;;5092023;28;20386;-69
2022/12/02 08:34:59;;;;;;;;;;;2.30;99.90;;;;;;5102740;28;19920;-69
2022/12/02 08:37:25;;;;;;;;;;;2.40;99.90;;;;;;5100089;28;19931;-68
2022/12/02 08:39:50;;;;;;;;;;;2.40;99.90;;;;;;5109000;28;19920;-68
2022/12/02 08:42:19;;;;;;;;;;;2.40;99.90;;;;;;5112640;28;19919;-69
2022/12/02 08:44:45;;;;;;;;;;;2.50;99.90;;;;;;5111596;28;19924;-67
2022/12/02 08:47:10;;;;;;;;;;;2.50;99.90;;;;;;5110749;27;20256;-67
2022/12/02 08:49:36;;;;;;;;;;;2.50;99.90;;;;;;5109992;28;19920;-69
2022/12/02 08:52:01;;;;;;;;;;;2.50;99.90;;;;;;5113156;28;19923;-69
2022/12/02 08:54:27;;;;;;;;;;;2.50;99.90;;;;;;5112512;27;20404;-69
2022/12/02 08:56:53;;;;;;;;;;;2.50;99.90;;;;;;5114455;28;20367;-68
2022/12/02 08:59:18;;;;;;;;;;;2.50;99.90;;;;;;5094011;28;20397;-70
2022/12/02 09:01:44;;;;;;;;;;;2.50;99.90;;;;;;5111727;28;19966;-67
2022/12/02 09:04:10;;;;;;;;;;;2.60;99.90;;;;;;5107234;28;19920;-65
2022/12/02 09:06:35;;;;;;;;;;;2.50;99.90;;;;;;5113328;28;19927;-67
2022/12/02 09:09:01;;;;;;;;;;;2.50;99.90;;;;;;5103175;28;19920;-69
2022/12/02 09:11:26;;;;;;;;;;;2.50;99.90;;;;;;5127131;27;20010;-69
2022/12/02 09:13:52;;;;;;;;;;;2.50;99.90;;;;;;5107237;28;20475;-68
2022/12/02 09:16:17;;;;;;;;;;;2.50;99.90;;;;;;5079950;28;19920;-68
2022/12/02 09:18:43;;;;;;;;;;;2.60;99.90;;;;;;5096168;27;19954;-69
2022/12/02 09:21:08;;;;;;;;;;;2.50;99.90;;;;;;5115075;27;19930;-68
2022/12/02 09:23:34;;;;;;;;;;;2.60;99.90;;;;;;5099852;27;19920;-69
2022/12/02 09:25:59;;;;;;;;;;;2.50;99.90;;;;;;5145982;27;19924;-70
2022/12/02 09:28:25;;;;;;;;;;;2.60;99.90;;;;;;5109076;27;20018;-70
2022/12/02 09:30:51;;;;;;;;;;;2.60;99.90;;;;;;5109863;27;19976;-68
2022/12/02 09:33:16;;;;;;;;;;;2.60;99.90;;;;;;5138028;27;20140;-66
2022/12/02 09:35:42;;;;;;;;;;;2.60;99.90;;;;;;5113720;28;20327;-68
2022/12/02 09:38:07;;;;;;;;;;;2.70;99.90;;;;;;5103831;28;19927;-68
2022/12/02 09:40:33;;;;;;;;;;;2.60;99.90;;;;;;5112766;28;19924;-68
2022/12/02 09:42:59;;;;;;;;;;;2.60;99.90;;;;;;5113108;28;19924;-69
2022/12/02 09:45:25;;;;;;;;;;;2.60;99.90;;;;;;5111832;28;19990;-69
2022/12/02 09:47:51;;;;;;;;;;;2.70;99.90;;;;;;5101418;28;20639;-69
2022/12/02 09:50:17;;;;;;;;;;;2.70;99.90;;;;;;5095265;28;19924;-69
2022/12/02 09:52:42;;;;;;;;;;;2.70;99.90;;;;;;5092834;28;19920;-68
2022/12/02 09:55:19;;;;;;;;;;;2.70;99.90;;;;;;5108186;27;19924;-70
2022/12/02 09:57:45;;;;;;;;;;;2.80;99.90;;;;;;5096796;27;19920;-68
2022/12/02 10:00:15;;;;;;;;;;;2.80;99.90;;;;;;5106587;28;19920;-69
2022/12/02 10:02:43;;;;;;;;;;;2.90;99.90;;;;;;5111854;28;20333;-71
2022/12/02 10:05:19;;;;;;;;;;;2.90;99.90;;;;;;5103148;28;19985;-68
2022/12/02 10:07:45;;;;;;;;;;;2.90;99.90;;;;;;5136982;27;19919;-70
2022/12/02 10:10:12;;;;;;;;;;;3.00;99.90;;;;;;5117363;27;19942;-69
2022/12/02 10:12:38;;;;;;;;;;;3.00;99.90;;;;;;5076144;28;19931;-69
2022/12/02 10:15:04;;;;;;;;;;;3.10;99.90;;;;;;5082978;28;20412;-70
2022/12/02 10:17:29;;;;;;;;;;;3.10;99.90;;;;;;5120932;27;20327;-70
2022/12/02 10:19:55;;;;;;;;;;;3.10;99.90;;;;;;5082015;28;19920;-70
2022/12/02 10:22:21;;;;;;;;;;;3.00;99.90;;;;;;5065838;28;20356;-70
2022/12/02 10:24:47;;;;;;;;;;;3.00;99.90;;;;;;5080505;28;19924;-69
2022/12/02 10:27:26;;;;;;;;;;;3.10;99.90;;;;;;5091579;28;19955;-69
2022/12/02 10:29:51;;;;;;;;;;;3.00;99.90;;;;;;5083089;28;19927;-69
2022/12/02 10:32:19;;;;;;;;;;;3.00;99.90;;;;;;5085821;27;19924;-68
2022/12/02 10:34:59;;;;;;;;;;;3.00;99.90;;;;;;5085938;28;19923;-68
2022/12/02 10:37:25;;;;;;;;;;;3.00;99.90;;;;;;5083378;28;19939;-67
2022/12/02 10:40:06;;;;;;;;;;;3.00;99.90;;;;;;5113572;27;20006;-67
2022/12/02 10:42:31;;;;;;;;;;;3.10;99.90;;;;;;5069081;28;19924;-68
2022/12/02 10:45:08;;;;;;;;;;;3.10;99.90;;;;;;5079414;27;19920;-66
2022/12/02 10:47:34;;;;;;;;;;;3.00;99.90;;;;;;5074798;28;20007;-66
2022/12/02 10:49:59;;;;;;;;;;;3.00;99.90;;;;;;5081297;28;20072;-67
2022/12/02 10:52:26;;;;;;;;;;;3.00;99.90;;;;;;5098105;28;20282;-64
2022/12/02 10:54:52;;;;;;;;;;;3.00;99.90;;;;;;5084511;28;20328;-68
2022/12/02 10:57:23;;;;;;;;;;;3.00;99.90;;;;;;5084067;28;19919;-67
2022/12/02 10:59:49;;;;;;;;;;;3.00;99.90;;;;;;5083654;27;19928;-67
2022/12/02 11:02:32;;;;;;;;;;;3.00;99.90;;;;;;5113465;27;19931;-69
2022/12/02 11:05:00;;;;;;;;;;;3.00;99.90;;;;;;5086525;28;19927;-67
2022/12/02 11:07:26;;;;;;;;;;;3.00;99.90;;;;;;5098934;27;20386;-68
2022/12/02 11:09:53;;;;;;;;;;;2.90;99.90;;;;;;5091630;27;19920;-67
2022/12/02 11:12:48;;;;;;;;;;;2.90;99.90;;;;;;5130961;27;20070;-69
2022/12/02 11:15:31;;;;;;;;;;;2.90;99.90;;;;;;5120734;27;20378;-69
2022/12/02 11:17:57;;;;;;;;;;;3.00;99.90;;;;;;5135734;27;20077;-70
2022/12/02 11:20:34;;;;;;;;;;;3.00;99.90;;;;;;5092890;27;19967;-69
2022/12/02 11:22:59;;;;;;;;;;;2.90;99.90;;;;;;5126058;27;20430;-69
2022/12/02 11:25:43;;;;;;;;;;;2.90;99.90;;;;;;5101540;27;20026;-69
2022/12/02 11:28:18;;;;;;;;;;;2.90;99.90;;;;;;5098230;28;19927;-67
2022/12/02 11:31:03;;;;;;;;;;;2.90;99.90;;;;;;5100806;28;19974;-66
2022/12/02 11:33:50;;;;;;;;;;;2.80;99.90;;;;;;5092678;27;19924;-68
2022/12/02 11:36:17;;;;;;;;;;;2.80;99.90;;;;;;5097003;28;19920;-67
2022/12/02 11:38:49;;;;;;;;;;;2.80;99.90;;;;;;5099010;28;19924;-68
2022/12/02 11:41:15;;;;;;;;;;;2.80;99.90;;;;;;5097297;28;19920;-66
2022/12/02 11:43:43;;;;;;;;;;;2.70;99.90;;;;;;5107116;27;19928;-69
2022/12/02 11:46:11;;;;;;;;;;;2.70;99.90;;;;;;5095352;28;19928;-69
2022/12/02 11:48:44;;;;;;;;;;;2.80;99.90;;;;;;5096885;28;19920;-68
2022/12/02 11:51:28;;;;;;;;;;;2.80;99.90;;;;;;5095682;28;19939;-69
2022/12/02 11:53:54;;;;;;;;;;;2.80;99.90;;;;;;5100820;28;19928;-66
2022/12/02 11:56:20;;;;;;;;;;;2.70;99.90;;;;;;5094320;28;19924;-69
2022/12/02 11:58:46;;;;;;;;;;;2.70;99.90;;;;;;5099854;28;19931;-68
2022/12/02 12:01:12;;;;;;;;;;;2.70;99.90;;;;;;5099813;28;19931;-68
2022/12/02 12:03:56;;;;;;;;;;;2.70;99.90;;;;;;5099602;28;19923;-65
2022/12/02 12:06:24;;;;;;;;;;;2.70;99.90;;;;;;5131850;27;20359;-65
2022/12/02 12:08:54;;;;;;;;;;;2.70;99.90;;;;;;5103321;28;20006;-66
2022/12/02 12:11:19;;;;;;;;;;;2.70;99.90;;;;;;5096758;28;19961;-66
2022/12/02 12:14:04;;;;;;;;;;;2.80;99.90;;;;;;5095569;27;20310;-66
2022/12/02 12:16:33;;;;;;;;;;;2.70;99.90;;;;;;5098099;28;19966;-66
2022/12/02 12:18:59;;;;;;;;;;;2.70;99.90;;;;;;5093370;28;19947;-66
2022/12/02 12:21:31;;;;;;;;;;;2.70;99.90;;;;;;5097303;28;19981;-66
2022/12/02 12:24:22;;;;;;;;;;;2.70;99.90;;;;;;5099138;28;19920;-66
2022/12/02 12:26:48;;;;;;;;;;;2.70;99.90;;;;;;5098202;28;20488;-65
2022/12/02 12:29:14;;;;;;;;;;;2.70;99.90;;;;;;5087352;28;19927;-66
2022/12/02 12:31:40;;;;;;;;;;;2.70;99.90;;;;;;5096096;28;19931;-66
2022/12/02 12:34:06;;;;;;;;;;;2.70;99.90;;;;;;5131491;27;20490;-65
2022/12/02 12:36:32;;;;;;;;;;;2.80;99.90;;;;;;5101235;28;19955;-66
2022/12/02 12:38:57;;;;;;;;;;;2.70;99.90;;;;;;5111908;28;20045;-65
2022/12/02 12:41:23;;;;;;;;;;;2.70;99.90;;;;;;5129326;27;19932;-66
2022/12/02 12:43:49;;;;;;;;;;;2.70;99.90;;;;;;5104826;28;19996;-65
2022/12/02 12:46:15;;;;;;;;;;;2.70;99.90;;;;;;5100248;28;19923;-66
2022/12/02 12:48:40;;;;;;;;;;;2.70;99.90;;;;;;5128261;27;20275;-65
2022/12/02 12:51:07;;;;;;;;;;;2.70;99.90;;;;;;5098522;28;19935;-65
2022/12/02 12:53:32;;;;;;;;;;;2.70;99.90;;;;;;5108760;28;19921;-66
2022/12/02 12:55:58;;;;;;;;;;;2.70;99.90;;;;;;5103871;28;19946;-65
2022/12/02 12:58:24;;;;;;;;;;;2.70;99.90;;;;;;5097661;28;19919;-66
2022/12/02 13:00:49;;;;;;;;;;;2.70;99.90;;;;;;5087024;28;20281;-66
2022/12/02 13:03:15;;;;;;;;;;;2.70;99.90;;;;;;5142503;27;19935;-66
2022/12/02 13:05:40;;;;;;;;;;;2.80;99.90;;;;;;5108843;28;20347;-66
2022/12/02 13:08:06;;;;;;;;;;;2.70;99.90;;;;;;5088483;28;20274;-65
2022/12/02 13:10:31;;;;;;;;;;;2.70;99.90;;;;;;5071048;28;19928;-66
2022/12/02 13:12:57;;;;;;;;;;;2.70;99.90;;;;;;5072366;28;20370;-66
2022/12/02 13:15:22;;;;;;;;;;;2.70;99.90;;;;;;5091245;28;20069;-65
2022/12/02 13:17:48;;;;;;;;;;;2.70;99.90;;;;;;5084670;28;20562;-67
2022/12/02 13:20:14;;;;;;;;;;;2.70;99.90;;;;;;5092371;28;19920;-66
2022/12/02 13:22:40;;;;;;;;;;;2.70;99.90;;;;;;5081186;28;19923;-66
2022/12/02 13:25:06;;;;;;;;;;;2.70;99.90;;;;;;5095514;28;19942;-65
2022/12/02 13:27:32;;;;;;;;;;;2.70;99.90;;;;;;5118566;27;19927;-65
2022/12/02 13:29:58;;;;;;;;;;;2.70;99.90;;;;;;5094129;28;19927;-66
2022/12/02 13:32:23;;;;;;;;;;;2.70;99.90;;;;;;5124521;27;20721;-66
2022/12/02 13:34:49;;;;;;;;;;;2.70;99.90;;;;;;5077253;27;19948;-66
2022/12/02 13:37:14;;;;;;;;;;;2.70;99.90;;;;;;5103670;28;19924;-66
2022/12/02 13:39:40;;;;;;;;;;;2.60;99.90;;;;;;5085717;28;20365;-66
2022/12/02 13:42:06;;;;;;;;;;;2.70;99.90;;;;;;5092093;28;20010;-66
2022/12/02 13:44:31;;;;;;;;;;;2.60;99.90;;;;;;5092064;28;20006;-66
2022/12/02 13:46:57;;;;;;;;;;;2.60;99.90;;;;;;5095379;28;19927;-65
2022/12/02 13:49:22;;;;;;;;;;;2.60;99.90;;;;;;5089220;28;19927;-66
2022/12/02 13:51:48;;;;;;;;;;;2.50;99.90;;;;;;5076037;28;19928;-65
2022/12/02 13:54:14;;;;;;;;;;;2.60;99.90;;;;;;5075556;28;19920;-66
2022/12/02 13:56:39;;;;;;;;;;;2.50;99.90;;;;;;5075833;28;19924;-66
2022/12/02 13:59:05;;;;;;;;;;;2.60;99.90;;;;;;5094003;28;19927;-65
2022/12/02 14:01:30;;;;;;;;;;;2.50;99.90;;;;;;5087542;28;20016;-66
2022/12/02 14:03:56;;;;;;;;;;;2.50;99.90;;;;;;5088729;28;19985;-66
2022/12/02 14:06:21;;;;;;;;;;;2.50;99.90;;;;;;5081361;28;19920;-66
2022/12/02 14:08:47;;;;;;;;;;;2.50;99.90;;;;;;5091917;28;20275;-66
2022/12/02 14:11:12;;;;;;;;;;;2.50;99.90;;;;;;5093050;28;19946;-65
2022/12/02 14:13:38;;;;;;;;;;;2.60;99.90;;;;;;5094652;28;19924;-66
2022/12/02 14:16:03;;;;;;;;;;;2.50;99.90;;;;;;5088549;28;19970;-66
2022/12/02 14:18:29;;;;;;;;;;;2.50;99.90;;;;;;5090281;28;19924;-66
2022/12/02 14:20:55;;;;;;;;;;;2.50;99.90;;;;;;5104489;28;19920;-66
2022/12/02 14:23:20;;;;;;;;;;;2.50;99.90;;;;;;5115636;27;20394;-66
2022/12/02 14:25:46;;;;;;;;;;;2.40;99.90;;;;;;5095768;28;19924;-65
2022/12/02 14:28:12;;;;;;;;;;;2.50;99.90;;;;;;5087512;28;20397;-66
2022/12/02 14:30:37;;;;;;;;;;;2.50;99.90;;;;;;5094311;28;20432;-65
2022/12/02 14:33:03;;;;;;;;;;;2.50;99.90;;;;;;5114603;27;19974;-66
2022/12/02 14:35:28;;;;;;;;;;;2.50;99.90;;;;;;5073866;28;19924;-67